Senecaville, Ohio
Current Conditions -  °F | °C
As of 6:53 AM on Wednesday 26 Nov 2014 (Local Time) from KZZV Reporting Station
Overcast Overcast  
Wind Chill: 24°   Ceiling: 10000
Heat Index: 30°   Visibility: 8mi
Dew Point: 26°   Wind: 6mph
Humidity: 85%   Direction: 360°N
Pressure: 30.08"   Gusts: NA
Location:  39.93°N, 81.46°W
Report Text: KZZV 261153Z AUTO 36005KT 8SM OVC100 M01/M03 A3008 RMK AO2 SLP195 T10111033 11011 21028 55011
Loading
Personal Weather Stations






























Interactive Weather Map New forecast layout! Learn more

10-Day Weather Forecast

Advertisements
Track Severe Weather on mobile